Time;durP1;ratioP1;P1;durP2;ratioP2;P2;SDS_P1;SDS_P2;PMS_P1;PMS_P2;Temp;Humidity;BMP_temperature;BMP_pressure;BME280_temperature;BME280_humidity;BME280_pressure;Samples;Min_cycle;Max_cycle;Signal;HPM_P1;HPM_P2
2023/12/17 00:01:44;;;;;;;1.40;1.20;;;22.90;60.80;;;;;;5072769;28;20472;-88
2023/12/17 00:04:12;;;;;;;1.33;1.10;;;23.00;61.00;;;;;;5073103;28;20448;-88
2023/12/17 00:06:40;;;;;;;1.30;1.20;;;22.90;60.90;;;;;;5072698;28;20468;-87
2023/12/17 00:09:07;;;;;;;1.43;1.30;;;23.00;61.00;;;;;;5072869;28;20444;-88
2023/12/17 00:11:39;;;;;;;1.67;1.20;;;22.90;61.00;;;;;;5072778;28;20440;-87
2023/12/17 00:14:06;;;;;;;1.97;1.40;;;22.80;60.90;;;;;;5072871;28;20440;-91
2023/12/17 00:16:33;;;;;;;1.37;1.20;;;22.80;60.80;;;;;;5073032;28;20983;-91
2023/12/17 00:19:00;;;;;;;1.40;1.20;;;22.80;60.80;;;;;;5072784;28;20531;-87
2023/12/17 00:21:28;;;;;;;1.30;1.10;;;22.80;60.90;;;;;;5072759;28;20433;-91
2023/12/17 00:23:55;;;;;;;1.20;1.00;;;22.80;60.90;;;;;;5072362;28;20503;-87
2023/12/17 00:26:21;;;;;;;3.33;1.30;;;22.80;61.00;;;;;;5071862;28;20444;-87
2023/12/17 00:28:48;;;;;;;1.53;1.27;;;22.80;60.90;;;;;;5072262;28;20524;-87
2023/12/17 00:31:15;;;;;;;1.37;1.17;;;22.80;60.90;;;;;;5072621;28;20444;-88
2023/12/17 00:33:42;;;;;;;1.30;1.10;;;22.80;60.90;;;;;;5071836;28;20448;-88
2023/12/17 00:36:09;;;;;;;2.50;1.57;;;22.80;60.90;;;;;;5072719;28;20528;-88
2023/12/17 00:38:37;;;;;;;1.37;1.10;;;22.80;61.00;;;;;;5072755;28;20524;-88
2023/12/17 00:41:04;;;;;;;1.40;1.27;;;22.80;61.00;;;;;;5072558;28;20452;-88
2023/12/17 00:43:31;;;;;;;1.50;0.90;;;22.80;61.10;;;;;;5071820;28;20571;-88
2023/12/17 00:45:58;;;;;;;1.50;1.30;;;22.80;61.10;;;;;;5072470;28;20919;-88
2023/12/17 00:48:25;;;;;;;2.43;1.23;;;22.80;61.10;;;;;;5072642;28;20442;-88
2023/12/17 00:50:52;;;;;;;2.70;1.10;;;22.80;61.00;;;;;;5072370;28;20446;-87
2023/12/17 00:53:18;;;;;;;1.63;1.20;;;22.70;61.00;;;;;;5072491;28;20439;-88
2023/12/17 00:55:46;;;;;;;1.40;1.10;;;22.70;61.00;;;;;;5072569;28;20519;-88
2023/12/17 00:58:13;;;;;;;1.60;1.10;;;22.70;61.00;;;;;;5072502;28;20938;-88
2023/12/17 01:00:40;;;;;;;1.97;1.43;;;22.70;61.20;;;;;;5072322;28;20436;-87
2023/12/17 01:03:07;;;;;;;1.20;1.03;;;22.70;61.10;;;;;;5072254;28;20495;-89
2023/12/17 01:05:34;;;;;;;1.17;1.00;;;22.70;61.10;;;;;;5072460;28;20519;-87
2023/12/17 01:08:01;;;;;;;1.37;1.10;;;22.70;61.20;;;;;;5072094;28;20480;-87
2023/12/17 01:10:28;;;;;;;1.20;1.10;;;22.70;61.10;;;;;;5072349;28;20432;-87
2023/12/17 01:12:56;;;;;;;1.30;1.13;;;22.70;61.20;;;;;;5072302;28;20807;-88
2023/12/17 01:15:23;;;;;;;1.93;1.17;;;22.70;61.20;;;;;;5072298;28;20443;-88
2023/12/17 01:17:50;;;;;;;1.20;1.00;;;22.70;62.20;;;;;;5072296;28;20527;-88
2023/12/17 01:20:17;;;;;;;1.57;1.47;;;22.70;61.20;;;;;;5072241;28;20923;-88
2023/12/17 01:22:44;;;;;;;1.40;1.17;;;22.70;61.30;;;;;;5074197;28;20487;-88
2023/12/17 01:25:10;;;;;;;1.40;1.00;;;22.70;61.20;;;;;;5075759;28;20543;-88
2023/12/17 01:27:37;;;;;;;1.27;1.17;;;22.70;61.20;;;;;;5075823;28;20436;-88
2023/12/17 01:30:07;;;;;;;1.30;0.97;;;22.70;61.20;;;;;;5075875;28;20433;-88
2023/12/17 01:32:34;;;;;;;1.47;1.37;;;22.70;61.30;;;;;;5075593;28;20548;-89
2023/12/17 01:35:00;;;;;;;1.10;1.00;;;22.60;61.20;;;;;;5075789;28;20436;-88
2023/12/17 01:37:28;;;;;;;1.30;1.17;;;22.60;61.30;;;;;;5075642;28;20432;-88
2023/12/17 01:39:55;;;;;;;1.57;1.47;;;22.60;61.40;;;;;;5075648;28;20432;-89
2023/12/17 01:42:22;;;;;;;1.30;1.20;;;22.70;61.50;;;;;;5075393;28;20566;-89
2023/12/17 01:44:48;;;;;;;1.30;1.20;;;22.60;61.50;;;;;;5075488;28;20433;-88
2023/12/17 01:47:17;;;;;;;1.47;1.37;;;22.60;61.60;;;;;;5075324;28;20935;-87
2023/12/17 01:49:44;;;;;;;1.10;1.00;;;22.60;61.60;;;;;;5075483;28;20433;-86
2023/12/17 01:52:10;;;;;;;1.20;1.10;;;22.70;62.40;;;;;;5075317;28;20462;-87
2023/12/17 01:54:39;;;;;;;1.33;1.17;;;22.70;61.60;;;;;;5075342;28;20439;-87
2023/12/17 01:57:06;;;;;;;1.70;1.17;;;22.60;61.40;;;;;;5075242;28;20471;-86
2023/12/17 01:59:35;;;;;;;1.10;0.90;;;22.60;61.40;;;;;;5075237;28;20439;-87
2023/12/17 02:02:03;;;;;;;1.20;1.10;;;22.60;61.40;;;;;;5075149;28;20559;-87
2023/12/17 02:04:32;;;;;;;1.23;1.13;;;22.60;61.60;;;;;;5075147;28;20440;-86
2023/12/17 02:06:59;;;;;;;1.20;0.90;;;22.60;61.40;;;;;;5074793;28;20894;-87
2023/12/17 02:09:26;;;;;;;1.13;1.00;;;22.60;61.40;;;;;;5074959;28;20432;-86
2023/12/17 02:11:52;;;;;;;1.83;1.10;;;22.60;62.30;;;;;;5074966;28;20437;-87
2023/12/17 02:14:19;;;;;;;1.40;1.20;;;22.70;61.40;;;;;;5074843;28;20931;-87
2023/12/17 02:16:46;;;;;;;1.20;1.00;;;22.60;61.40;;;;;;5075125;28;20436;-87
2023/12/17 02:19:13;;;;;;;1.20;1.00;;;22.60;61.30;;;;;;5074807;28;20444;-87
2023/12/17 02:21:41;;;;;;;1.70;1.30;;;22.60;61.40;;;;;;5074755;28;20443;-87
2023/12/17 02:24:09;;;;;;;1.60;1.20;;;22.60;61.50;;;;;;5074599;28;20492;-87
2023/12/17 02:26:36;;;;;;;1.30;1.03;;;22.60;61.40;;;;;;5074555;28;20436;-87
2023/12/17 02:29:03;;;;;;;1.20;1.03;;;22.60;61.50;;;;;;5074693;28;20436;-87
2023/12/17 02:31:30;;;;;;;1.60;0.97;;;22.60;61.40;;;;;;5074499;28;20440;-87
2023/12/17 02:33:57;;;;;;;1.10;0.90;;;22.60;61.30;;;;;;5074370;28;20519;-87
2023/12/17 02:36:23;;;;;;;1.20;0.90;;;22.60;61.40;;;;;;5074434;28;21363;-87
2023/12/17 02:38:50;;;;;;;2.80;1.10;;;22.60;61.20;;;;;;5074415;28;20451;-87
2023/12/17 02:41:20;;;;;;;1.20;1.10;;;22.60;61.30;;;;;;5074301;28;20436;-87
2023/12/17 02:43:47;;;;;;;1.37;1.00;;;22.60;61.50;;;;;;5074274;28;21053;-87
2023/12/17 02:46:14;;;;;;;1.97;1.00;;;22.60;61.40;;;;;;5074243;28;20798;-87
2023/12/17 02:48:41;;;;;;;1.37;1.20;;;22.60;61.40;;;;;;5074146;28;20435;-87
2023/12/17 02:51:08;;;;;;;1.53;1.43;;;22.60;61.30;;;;;;5074033;28;20505;-87
2023/12/17 02:53:34;;;;;;;1.20;0.90;;;22.60;61.40;;;;;;5074116;28;20432;-87
2023/12/17 02:56:01;;;;;;;1.30;1.10;;;22.60;61.40;;;;;;5074053;28;20444;-87
2023/12/17 02:58:29;;;;;;;1.10;1.00;;;22.70;61.40;;;;;;5074019;28;20915;-87
2023/12/17 03:00:56;;;;;;;1.10;0.97;;;22.60;61.30;;;;;;5073988;28;20536;-88
2023/12/17 03:03:23;;;;;;;1.30;1.20;;;22.60;61.30;;;;;;5073788;28;20488;-87
2023/12/17 03:05:50;;;;;;;1.30;0.93;;;22.60;61.30;;;;;;5073779;28;20436;-87
2023/12/17 03:08:17;;;;;;;1.20;1.10;;;22.60;61.30;;;;;;5073706;28;20522;-87
2023/12/17 03:10:43;;;;;;;1.50;1.00;;;22.60;61.30;;;;;;5073605;28;20461;-87
2023/12/17 03:13:10;;;;;;;1.20;1.00;;;22.60;61.30;;;;;;5073669;28;20435;-87
2023/12/17 03:15:38;;;;;;;1.50;0.97;;;22.60;61.30;;;;;;5073692;28;20429;-89
2023/12/17 03:18:05;;;;;;;1.20;1.00;;;22.60;61.30;;;;;;5073614;28;20432;-87
2023/12/17 03:20:32;;;;;;;1.07;0.90;;;22.60;61.20;;;;;;5073658;28;20429;-87
2023/12/17 03:22:59;;;;;;;1.20;1.00;;;22.60;61.20;;;;;;5073479;28;20997;-87
2023/12/17 03:25:27;;;;;;;1.10;0.87;;;22.60;61.20;;;;;;5073426;28;20452;-87
2023/12/17 03:27:53;;;;;;;1.30;1.10;;;22.60;61.20;;;;;;5073271;28;20439;-87
2023/12/17 03:30:20;;;;;;;1.40;1.17;;;22.60;61.20;;;;;;5073433;28;20447;-87
2023/12/17 03:32:48;;;;;;;1.10;1.00;;;22.60;61.10;;;;;;5073435;28;20848;-87
2023/12/17 03:35:15;;;;;;;1.20;1.10;;;22.60;61.10;;;;;;5073274;28;20448;-87
2023/12/17 03:37:42;;;;;;;1.10;1.00;;;22.60;61.10;;;;;;5073459;28;20445;-87
2023/12/17 03:40:10;;;;;;;1.10;0.90;;;22.60;61.20;;;;;;5073185;28;20447;-87
2023/12/17 03:42:37;;;;;;;1.10;0.90;;;22.60;61.10;;;;;;5073023;28;20440;-87
2023/12/17 03:45:05;;;;;;;1.10;0.90;;;22.60;61.00;;;;;;5072688;28;20432;-87
2023/12/17 03:47:32;;;;;;;1.20;0.90;;;22.60;61.10;;;;;;5073058;28;20432;-87
2023/12/17 03:50:00;;;;;;;1.17;1.07;;;22.70;61.20;;;;;;5073440;28;20844;-88
2023/12/17 03:52:27;;;;;;;1.30;1.20;;;22.60;61.10;;;;;;5073076;28;20445;-87
2023/12/17 03:54:54;;;;;;;1.60;1.00;;;22.60;61.00;;;;;;5073002;28;20437;-87
2023/12/17 03:57:20;;;;;;;1.10;0.93;;;22.60;61.10;;;;;;5073245;28;20432;-86
2023/12/17 03:59:47;;;;;;;1.10;0.90;;;22.60;61.10;;;;;;5073001;28;20430;-87
2023/12/17 04:02:14;;;;;;;1.20;1.10;;;22.60;61.10;;;;;;5072913;28;20448;-91
2023/12/17 04:04:41;;;;;;;1.20;0.90;;;22.60;61.00;;;;;;5073004;28;20579;-87
2023/12/17 04:07:09;;;;;;;1.10;0.90;;;22.60;61.00;;;;;;5072661;28;20464;-87
2023/12/17 04:09:36;;;;;;;1.13;0.93;;;22.60;60.90;;;;;;5072892;28;20524;-87
2023/12/17 04:12:02;;;;;;;1.00;0.80;;;22.60;60.90;;;;;;5072887;28;20439;-87
2023/12/17 04:14:29;;;;;;;1.10;1.00;;;22.60;60.80;;;;;;5072960;28;20443;-87
2023/12/17 04:16:56;;;;;;;1.30;1.10;;;22.60;60.90;;;;;;5072819;28;20791;-87
2023/12/17 04:19:23;;;;;;;1.00;0.80;;;22.60;60.90;;;;;;5072876;28;20440;-88
2023/12/17 04:21:49;;;;;;;1.27;0.97;;;22.60;60.90;;;;;;5072806;28;20436;-87
2023/12/17 04:24:18;;;;;;;1.10;1.00;;;22.60;60.90;;;;;;5072344;28;20483;-87
2023/12/17 04:26:44;;;;;;;1.13;1.03;;;22.60;61.00;;;;;;5072824;28;20454;-87
2023/12/17 04:29:11;;;;;;;1.50;1.00;;;22.60;61.00;;;;;;5072715;28;20525;-88
2023/12/17 04:31:38;;;;;;;1.57;1.10;;;22.60;60.90;;;;;;5072792;28;20443;-87
2023/12/17 04:34:05;;;;;;;1.10;0.93;;;22.70;61.20;;;;;;5072844;28;20871;-87
2023/12/17 04:36:31;;;;;;;1.10;0.80;;;22.60;61.00;;;;;;5072726;28;20428;-87
2023/12/17 04:38:58;;;;;;;2.03;1.30;;;22.60;61.00;;;;;;5072593;28;20433;-87
2023/12/17 04:41:26;;;;;;;2.03;0.90;;;22.60;61.00;;;;;;5072603;28;20428;-87
2023/12/17 04:43:53;;;;;;;1.10;0.70;;;22.60;61.00;;;;;;5072434;28;20567;-87
2023/12/17 04:46:20;;;;;;;1.70;1.20;;;22.60;61.00;;;;;;5072562;28;20437;-87
2023/12/17 04:48:47;;;;;;;1.20;1.00;;;22.50;61.70;;;;;;5072469;28;20437;-87
2023/12/17 04:51:15;;;;;;;1.10;0.90;;;22.60;61.00;;;;;;5072663;28;20444;-87
2023/12/17 04:53:42;;;;;;;1.07;0.90;;;22.50;60.80;;;;;;5072507;28;20459;-87
2023/12/17 04:56:09;;;;;;;1.30;1.00;;;22.60;61.00;;;;;;5073923;28;20432;-87
2023/12/17 04:58:38;;;;;;;1.00;0.90;;;22.60;61.00;;;;;;5076372;28;20515;-87
2023/12/17 05:01:05;;;;;;;1.00;0.77;;;22.60;61.00;;;;;;5076293;28;20436;-87
2023/12/17 05:03:31;;;;;;;1.00;0.83;;;22.60;60.90;;;;;;5075026;28;20493;-87
2023/12/17 05:05:58;;;;;;;1.13;0.87;;;22.60;60.90;;;;;;5076065;28;20514;-87
2023/12/17 05:08:25;;;;;;;1.00;0.80;;;22.60;60.90;;;;;;5075892;28;20551;-87
2023/12/17 05:10:52;;;;;;;1.27;1.03;;;22.60;60.80;;;;;;5076131;28;20463;-90
2023/12/17 05:13:19;;;;;;;1.53;1.00;;;22.60;60.70;;;;;;5076049;28;20515;-87
2023/12/17 05:15:47;;;;;;;1.00;0.90;;;22.60;60.70;;;;;;5075972;28;20440;-87
2023/12/17 05:18:14;;;;;;;1.10;0.90;;;22.60;60.80;;;;;;5075957;28;20787;-87
2023/12/17 05:20:41;;;;;;;1.10;0.93;;;22.60;60.70;;;;;;5075877;28;20436;-87
2023/12/17 05:23:10;;;;;;;1.00;0.80;;;22.60;60.80;;;;;;5075891;28;20428;-87
2023/12/17 05:25:37;;;;;;;1.20;1.07;;;22.60;60.70;;;;;;5075829;28;20448;-87
2023/12/17 05:28:04;;;;;;;1.23;0.90;;;22.60;60.70;;;;;;5075890;28;20464;-87
2023/12/17 05:30:31;;;;;;;1.20;1.10;;;22.60;60.60;;;;;;5075886;28;20951;-87
2023/12/17 05:32:59;;;;;;;1.10;0.90;;;22.60;60.60;;;;;;5075988;28;20539;-87
2023/12/17 05:35:26;;;;;;;1.00;0.80;;;22.80;60.80;;;;;;5076224;28;20610;-87
2023/12/17 05:37:53;;;;;;;1.17;0.93;;;22.70;60.60;;;;;;5076126;28;20432;-87
2023/12/17 05:40:20;;;;;;;1.00;0.80;;;22.80;60.80;;;;;;5075938;28;20443;-86
2023/12/17 05:42:47;;;;;;;1.10;0.80;;;22.70;60.50;;;;;;5075980;28;20858;-87
2023/12/17 05:45:13;;;;;;;1.00;0.80;;;22.70;60.50;;;;;;5075566;28;20480;-90
2023/12/17 05:47:41;;;;;;;1.10;0.90;;;22.80;60.70;;;;;;5076036;28;20436;-88
2023/12/17 05:50:10;;;;;;;1.10;1.00;;;22.70;60.50;;;;;;5075702;28;20440;-87
2023/12/17 05:52:37;;;;;;;1.20;0.90;;;22.70;60.40;;;;;;5075543;28;20490;-87
2023/12/17 05:55:06;;;;;;;1.10;0.93;;;22.70;60.40;;;;;;5075644;28;20475;-87
2023/12/17 05:57:33;;;;;;;1.10;0.80;;;22.70;60.40;;;;;;5075720;28;20436;-87
2023/12/17 06:00:00;;;;;;;1.00;0.80;;;22.70;60.30;;;;;;5075770;28;20490;-87
2023/12/17 06:02:27;;;;;;;1.10;0.90;;;22.70;60.40;;;;;;5075495;28;20467;-87
2023/12/17 06:04:54;;;;;;;1.17;1.00;;;22.70;60.40;;;;;;5075180;28;20483;-87
2023/12/17 06:07:22;;;;;;;1.10;0.90;;;22.70;60.40;;;;;;5074719;28;20898;-87
2023/12/17 06:09:49;;;;;;;1.07;0.83;;;22.70;60.40;;;;;;5075437;28;20931;-91
2023/12/17 06:12:15;;;;;;;1.10;1.00;;;22.70;60.30;;;;;;5075161;28;20428;-87
2023/12/17 06:14:42;;;;;;;1.27;1.10;;;22.80;60.50;;;;;;5075192;28;20982;-87
2023/12/17 06:17:09;;;;;;;1.00;0.77;;;22.80;60.50;;;;;;5075195;28;20443;-87
2023/12/17 06:19:37;;;;;;;1.07;0.87;;;22.70;60.30;;;;;;5075150;28;20524;-87
2023/12/17 06:22:04;;;;;;;1.10;1.00;;;22.70;60.30;;;;;;5074970;28;20436;-87
2023/12/17 06:24:33;;;;;;;1.20;1.03;;;22.80;60.40;;;;;;5075016;28;20881;-91
2023/12/17 06:27:00;;;;;;;1.10;1.00;;;22.80;60.30;;;;;;5075196;28;20441;-87
2023/12/17 06:29:27;;;;;;;1.10;0.93;;;22.70;60.30;;;;;;5075168;28;20467;-87
2023/12/17 06:31:54;;;;;;;1.50;1.07;;;22.80;60.40;;;;;;5074746;28;21017;-88
2023/12/17 06:34:21;;;;;;;1.10;0.80;;;22.80;60.20;;;;;;5075108;28;20444;-87
2023/12/17 06:36:48;;;;;;;1.30;0.90;;;22.70;60.30;;;;;;5075022;28;20962;-87
2023/12/17 06:39:14;;;;;;;1.20;0.93;;;22.80;60.30;;;;;;5074962;28;20536;-88
2023/12/17 06:41:45;;;;;;;1.17;1.07;;;22.80;60.30;;;;;;5074860;28;20447;-87
2023/12/17 06:44:12;;;;;;;1.00;0.80;;;22.80;60.30;;;;;;5075175;28;20476;-87
2023/12/17 06:46:39;;;;;;;1.10;0.90;;;22.80;60.10;;;;;;5075626;28;20444;-87
2023/12/17 06:49:06;;;;;;;1.20;1.00;;;22.90;60.40;;;;;;5074591;28;20539;-87
2023/12/17 06:51:33;;;;;;;1.00;0.80;;;22.80;60.20;;;;;;5074652;28;20432;-87
2023/12/17 06:54:00;;;;;;;1.10;0.83;;;22.80;60.10;;;;;;5074676;28;20552;-88
2023/12/17 06:56:27;;;;;;;1.80;1.00;;;22.80;60.10;;;;;;5074392;28;20436;-87
2023/12/17 06:58:55;;;;;;;1.20;1.00;;;22.70;60.00;;;;;;5074447;28;20528;-87
2023/12/17 07:01:22;;;;;;;1.13;0.90;;;22.80;60.10;;;;;;5074152;28;20448;-87
2023/12/17 07:03:49;;;;;;;1.00;0.70;;;22.80;60.10;;;;;;5074225;28;21033;-87
2023/12/17 07:06:16;;;;;;;1.13;0.97;;;22.80;60.10;;;;;;5074121;28;20901;-91
2023/12/17 07:08:42;;;;;;;1.10;1.00;;;22.80;60.10;;;;;;5074128;28;20472;-87
2023/12/17 07:11:11;;;;;;;1.10;0.90;;;22.80;60.10;;;;;;5073884;28;20443;-87
2023/12/17 07:13:38;;;;;;;1.10;0.90;;;22.80;60.00;;;;;;5073964;28;20479;-87
2023/12/17 07:16:07;;;;;;;1.00;0.80;;;22.80;60.10;;;;;;5073923;28;20528;-87
2023/12/17 07:18:34;;;;;;;1.00;0.80;;;22.80;60.10;;;;;;5074139;28;20447;-87
2023/12/17 07:21:01;;;;;;;1.33;1.17;;;22.80;60.00;;;;;;5072956;28;20436;-87
2023/12/17 07:23:27;;;;;;;1.10;0.90;;;22.80;60.00;;;;;;5073676;28;20916;-87
2023/12/17 07:25:54;;;;;;;1.10;0.90;;;22.80;60.00;;;;;;5073752;28;20484;-87
2023/12/17 07:28:21;;;;;;;1.20;0.90;;;22.80;60.00;;;;;;5073886;28;20444;-88
2023/12/17 07:30:48;;;;;;;1.10;0.90;;;22.80;60.00;;;;;;5073568;28;20455;-88
2023/12/17 07:33:16;;;;;;;1.10;0.80;;;22.80;60.00;;;;;;5073543;28;20453;-87
2023/12/17 07:35:43;;;;;;;1.20;1.00;;;22.80;60.00;;;;;;5073997;28;20943;-92
2023/12/17 07:38:09;;;;;;;1.10;0.90;;;22.80;60.00;;;;;;5073613;28;20562;-88
2023/12/17 07:40:36;;;;;;;1.03;0.80;;;22.80;60.00;;;;;;5073453;28;20440;-87
2023/12/17 07:43:03;;;;;;;1.13;1.03;;;22.80;60.00;;;;;;5073790;28;20536;-87
2023/12/17 07:45:30;;;;;;;1.10;0.90;;;22.80;59.90;;;;;;5073945;28;20490;-88
2023/12/17 07:47:57;;;;;;;1.07;0.80;;;22.90;60.10;;;;;;5073947;28;20432;-87
2023/12/17 07:50:25;;;;;;;1.10;0.90;;;22.80;59.90;;;;;;5073846;28;20441;-88
2023/12/17 07:52:52;;;;;;;1.30;1.00;;;22.90;60.00;;;;;;5074262;28;20436;-87
2023/12/17 07:55:18;;;;;;;1.10;0.90;;;22.80;59.90;;;;;;5073640;28;20428;-87
2023/12/17 07:57:45;;;;;;;1.10;0.87;;;22.90;59.90;;;;;;5073471;28;20440;-87
2023/12/17 08:00:13;;;;;;;1.10;0.90;;;22.80;60.00;;;;;;5073212;28;20436;-88
2023/12/17 08:02:40;;;;;;;1.03;0.83;;;22.80;60.00;;;;;;5073700;28;20461;-87
2023/12/17 08:05:07;;;;;;;1.00;0.90;;;22.90;59.80;;;;;;5073339;28;20480;-87
2023/12/17 08:07:36;;;;;;;1.10;1.00;;;22.90;60.00;;;;;;5072978;28;20529;-87
2023/12/17 08:10:04;;;;;;;1.00;0.70;;;22.80;60.00;;;;;;5073207;28;20528;-90
2023/12/17 08:12:31;;;;;;;1.10;0.97;;;22.90;60.00;;;;;;5073060;28;20519;-87
2023/12/17 08:14:57;;;;;;;1.20;0.80;;;22.80;59.90;;;;;;5070481;28;20436;-90
2023/12/17 08:17:24;;;;;;;1.10;0.97;;;22.80;59.90;;;;;;5053300;28;20929;-91
2023/12/17 08:19:51;;;;;;;1.10;0.80;;;22.90;59.90;;;;;;5053441;28;20440;-86
2023/12/17 08:22:18;;;;;;;1.10;0.90;;;22.80;59.90;;;;;;5053086;28;20436;-87
2023/12/17 08:24:46;;;;;;;1.30;1.20;;;22.90;60.10;;;;;;5052933;28;20947;-91
2023/12/17 08:27:13;;;;;;;1.07;0.97;;;22.80;59.90;;;;;;5052926;28;20437;-88
2023/12/17 08:29:40;;;;;;;1.10;0.87;;;22.90;60.00;;;;;;5053111;28;20439;-87
2023/12/17 08:32:08;;;;;;;1.10;0.90;;;22.90;60.00;;;;;;5056184;28;20468;-88
2023/12/17 08:34:37;;;;;;;1.00;0.80;;;22.90;59.90;;;;;;5056998;28;20442;-87
2023/12/17 08:37:04;;;;;;;1.10;0.90;;;22.90;60.00;;;;;;5056983;28;20506;-90
2023/12/17 08:39:31;;;;;;;1.03;0.87;;;22.90;59.90;;;;;;5057244;28;20528;-87
2023/12/17 08:41:59;;;;;;;7.77;4.53;;;22.90;59.90;;;;;;5056793;28;20440;-88
2023/12/17 08:44:26;;;;;;;21.83;14.00;;;22.90;60.00;;;;;;5056796;28;20487;-88
2023/12/17 08:46:53;;;;;;;41.37;22.40;;;22.90;60.10;;;;;;5057118;28;20924;-87
2023/12/17 08:49:20;;;;;;;45.10;26.20;;;22.90;60.10;;;;;;5056850;28;20566;-87
2023/12/17 08:51:47;;;;;;;42.17;26.40;;;22.90;60.10;;;;;;5056578;28;20537;-87
2023/12/17 08:54:13;;;;;;;39.80;24.67;;;22.90;60.20;;;;;;5056585;28;20429;-91
2023/12/17 08:56:41;;;;;;;45.07;25.30;;;22.90;60.30;;;;;;5056845;28;20435;-87
2023/12/17 08:59:09;;;;;;;40.57;23.23;;;22.90;60.30;;;;;;5056938;28;20437;-91
2023/12/17 09:01:36;;;;;;;35.00;22.87;;;23.00;60.30;;;;;;5057074;28;20555;-86
2023/12/17 09:04:03;;;;;;;41.50;21.93;;;23.00;60.40;;;;;;5056411;28;20442;-87
2023/12/17 09:06:30;;;;;;;35.33;21.67;;;23.00;60.40;;;;;;5056414;28;20519;-87
2023/12/17 09:08:57;;;;;;;35.90;20.00;;;23.00;60.40;;;;;;5056450;28;20437;-90
2023/12/17 09:11:23;;;;;;;39.47;20.27;;;23.00;60.40;;;;;;5056336;28;20435;-92
2023/12/17 09:13:50;;;;;;;38.30;20.10;;;23.00;60.30;;;;;;5056321;28;20437;-87
2023/12/17 09:16:18;;;;;;;33.53;19.83;;;23.00;60.30;;;;;;5056328;28;20499;-90
2023/12/17 09:18:45;;;;;;;30.90;19.10;;;23.00;60.40;;;;;;5056218;28;20445;-88
2023/12/17 09:21:12;;;;;;;26.07;18.60;;;23.00;60.30;;;;;;5055980;28;20795;-87
2023/12/17 09:23:39;;;;;;;30.27;16.20;;;23.00;60.40;;;;;;5056248;28;20439;-87
2023/12/17 09:26:05;;;;;;;24.77;17.93;;;23.00;60.40;;;;;;5055996;28;20488;-91
2023/12/17 09:28:34;;;;;;;27.87;18.10;;;23.00;60.40;;;;;;5056326;28;20437;-87
2023/12/17 09:31:01;;;;;;;27.67;18.70;;;23.00;60.50;;;;;;5055701;28;20445;-90
2023/12/17 09:33:29;;;;;;;24.77;17.20;;;23.00;60.50;;;;;;5055790;28;20928;-90
2023/12/17 09:35:56;;;;;;;25.43;17.70;;;23.00;60.60;;;;;;5056586;28;20449;-86
2023/12/17 09:38:23;;;;;;;39.20;21.50;;;23.00;60.60;;;;;;5058179;28;20452;-84
2023/12/17 09:40:50;;;;;;;42.63;29.00;;;23.00;60.80;;;;;;5058310;28;20441;-84
2023/12/17 09:43:18;;;;;;;45.77;27.63;;;23.00;61.20;;;;;;5055456;28;20445;-86
2023/12/17 09:45:45;;;;;;;38.20;24.67;;;23.00;61.00;;;;;;5056083;28;20831;-86
2023/12/17 09:48:12;;;;;;;42.90;24.27;;;23.00;61.00;;;;;;5055865;28;20885;-87
2023/12/17 09:50:41;;;;;;;34.00;22.27;;;23.00;60.90;;;;;;5059695;28;20809;-86
2023/12/17 09:53:08;;;;;;;25.90;16.53;;;23.10;61.00;;;;;;5066000;28;20756;-92
2023/12/17 09:55:36;;;;;;;36.73;20.10;;;23.00;60.30;;;;;;5070111;28;20444;-87
2023/12/17 09:58:04;;;;;;;38.80;20.17;;;23.00;60.70;;;;;;5067748;28;20440;-86
2023/12/17 10:00:31;;;;;;;34.87;20.07;;;23.00;60.70;;;;;;5064620;28;20437;-87
2023/12/17 10:03:03;;;;;;;27.27;19.10;;;23.10;60.80;;;;;;5064308;28;20532;-86
2023/12/17 10:05:30;;;;;;;34.60;18.00;;;23.10;60.80;;;;;;5063727;28;20481;-87
2023/12/17 10:07:59;;;;;;;29.97;19.10;;;23.10;60.70;;;;;;5075341;28;20467;-87
2023/12/17 10:10:26;;;;;;;29.73;19.37;;;23.10;60.70;;;;;;5076397;28;20444;-87
2023/12/17 10:12:54;;;;;;;32.23;19.23;;;23.10;60.70;;;;;;5080676;28;20455;-87
2023/12/17 10:15:21;;;;;;;31.10;18.13;;;23.10;60.70;;;;;;5075930;28;20436;-86
2023/12/17 10:17:48;;;;;;;27.23;17.70;;;23.10;60.80;;;;;;5078472;28;20439;-87
2023/12/17 10:20:18;;;;;;;28.97;18.43;;;23.10;60.80;;;;;;5078778;28;20432;-87
2023/12/17 10:22:57;;;;;;;26.23;16.90;;;23.10;60.80;;;;;;5080113;28;20436;-87
2023/12/17 10:25:25;;;;;;;27.30;16.90;;;23.10;60.80;;;;;;5076035;28;20488;-86
2023/12/17 10:27:57;;;;;;;24.80;15.53;;;23.10;60.80;;;;;;5075741;28;20818;-86
2023/12/17 10:30:27;;;;;;;29.47;17.60;;;23.10;60.70;;;;;;5074828;28;20451;-86
2023/12/17 10:32:54;;;;;;;23.87;15.53;;;23.10;60.70;;;;;;5074679;28;20468;-93
2023/12/17 10:35:22;;;;;;;25.80;17.27;;;23.10;60.60;;;;;;5074646;28;20428;-86
2023/12/17 10:37:52;;;;;;;28.53;17.27;;;23.10;60.60;;;;;;5074538;28;20433;-86
2023/12/17 10:40:20;;;;;;;19.07;14.80;;;23.10;60.60;;;;;;5074658;28;20436;-86
2023/12/17 10:42:50;;;;;;;24.97;15.17;;;23.10;60.60;;;;;;5074472;28;20456;-86
2023/12/17 10:45:20;;;;;;;20.53;14.20;;;23.10;60.50;;;;;;5074499;28;20472;-86
2023/12/17 10:47:48;;;;;;;17.40;13.90;;;23.10;60.50;;;;;;5074198;28;20467;-86
2023/12/17 10:50:16;;;;;;;22.87;14.00;;;23.10;60.50;;;;;;5074502;28;20527;-87
2023/12/17 10:52:45;;;;;;;24.93;15.40;;;23.20;60.60;;;;;;5074389;28;20441;-90
2023/12/17 10:55:15;;;;;;;20.60;15.77;;;23.10;60.50;;;;;;5073257;28;20506;-88
2023/12/17 10:57:46;;;;;;;22.57;13.40;;;23.10;60.70;;;;;;5080799;28;20459;-85
2023/12/17 11:00:19;;;;;;;12.13;8.00;;;23.10;60.70;;;;;;5074563;28;20440;-87
2023/12/17 11:02:53;;;;;;;21.50;12.00;;;23.10;59.40;;;;;;5067085;28;20882;-88
2023/12/17 11:05:20;;;;;;;20.33;11.13;;;23.10;60.00;;;;;;5060980;28;20484;-87
2023/12/17 11:07:47;;;;;;;19.97;12.60;;;23.10;60.30;;;;;;5062071;28;20465;-86
2023/12/17 11:10:15;;;;;;;19.83;11.70;;;23.10;60.40;;;;;;5059847;28;20440;-86
2023/12/17 11:12:42;;;;;;;15.10;10.53;;;23.10;60.70;;;;;;5058094;28;20444;-86
2023/12/17 11:15:12;;;;;;;14.73;11.70;;;23.20;60.80;;;;;;5056044;28;21208;-86
2023/12/17 11:17:41;;;;;;;16.40;10.63;;;23.10;60.60;;;;;;5055295;28;20517;-86
2023/12/17 11:20:09;;;;;;;14.30;11.23;;;23.10;60.50;;;;;;5055190;28;20456;-86
2023/12/17 11:22:37;;;;;;;21.10;11.30;;;23.10;60.50;;;;;;5055552;28;20457;-87
2023/12/17 11:25:10;;;;;;;12.87;10.70;;;23.10;60.50;;;;;;5058266;28;20477;-86
2023/12/17 11:27:38;;;;;;;13.20;10.30;;;23.10;60.40;;;;;;5058648;28;20504;-86
2023/12/17 11:30:29;;;;;;;16.43;10.50;;;23.10;60.40;;;;;;5058472;28;20442;-86
2023/12/17 11:32:59;;;;;;;15.10;10.33;;;23.10;60.40;;;;;;5057886;28;20462;-87
2023/12/17 11:35:28;;;;;;;16.30;10.20;;;23.10;60.40;;;;;;5057785;28;20441;-86
2023/12/17 11:37:55;;;;;;;14.70;10.37;;;23.10;60.40;;;;;;5058217;28;20441;-86
2023/12/17 11:40:22;;;;;;;15.67;10.57;;;23.10;60.60;;;;;;5058212;28;20418;-86
2023/12/17 11:42:56;;;;;;;16.10;9.67;;;23.10;60.50;;;;;;5058012;28;20832;-86
2023/12/17 11:45:35;;;;;;;13.10;9.93;;;23.10;60.40;;;;;;5057781;28;20509;-86
2023/12/17 11:48:20;;;;;;;15.90;10.40;;;23.20;60.60;;;;;;5057519;28;20461;-87
2023/12/17 11:50:49;;;;;;;14.80;9.97;;;23.20;60.50;;;;;;5058145;28;20452;-86
2023/12/17 11:53:18;;;;;;;15.60;10.07;;;23.10;60.40;;;;;;5057104;28;20472;-86
2023/12/17 11:55:46;;;;;;;12.77;9.10;;;23.20;60.60;;;;;;5054517;28;20436;-86
2023/12/17 11:58:15;;;;;;;11.00;8.77;;;23.20;60.60;;;;;;5055251;28;20437;-87
2023/12/17 12:00:43;;;;;;;15.10;9.47;;;23.20;60.50;;;;;;5054450;28;20464;-87
2023/12/17 12:03:11;;;;;;;14.03;9.53;;;23.10;60.40;;;;;;5057316;28;20501;-86
2023/12/17 12:05:38;;;;;;;11.07;9.17;;;23.20;60.60;;;;;;5056725;28;20469;-85
2023/12/17 12:08:06;;;;;;;14.00;9.40;;;23.20;60.60;;;;;;5057084;28;20476;-87
2023/12/17 12:10:33;;;;;;;9.23;8.33;;;23.20;60.60;;;;;;5055615;28;20453;-86
2023/12/17 12:13:01;;;;;;;12.30;9.20;;;23.20;60.60;;;;;;5052826;28;20469;-85
2023/12/17 12:15:29;;;;;;;9.30;7.80;;;23.20;60.60;;;;;;5052930;28;20452;-85
2023/12/17 12:17:56;;;;;;;12.80;8.93;;;23.20;60.60;;;;;;5052853;28;20495;-85
2023/12/17 12:20:37;;;;;;;12.07;8.30;;;23.20;60.50;;;;;;5053051;28;20492;-92
2023/12/17 12:23:09;;;;;;;28.73;8.80;;;23.20;59.90;;;;;;5052548;28;20884;-87
2023/12/17 12:25:36;;;;;;;10.70;8.20;;;23.20;60.20;;;;;;5052698;28;20476;-87
2023/12/17 12:28:03;;;;;;;11.90;8.17;;;23.10;60.20;;;;;;5051959;28;20807;-86
2023/12/17 12:30:32;;;;;;;14.10;8.97;;;23.10;60.30;;;;;;5052871;28;20421;-86
2023/12/17 12:33:09;;;;;;;10.43;7.93;;;23.20;60.50;;;;;;5052805;28;20441;-85
2023/12/17 12:35:38;;;;;;;9.30;8.30;;;23.20;60.50;;;;;;5052894;28;20429;-85
2023/12/17 12:38:18;;;;;;;9.73;6.97;;;23.10;60.40;;;;;;5052720;28;20766;-85
2023/12/17 12:40:45;;;;;;;7.17;5.60;;;23.20;60.50;;;;;;5057975;28;20466;-88
2023/12/17 12:43:14;;;;;;;7.80;5.27;;;23.10;59.70;;;;;;5072863;28;20939;-89